Time;durP1;ratioP1;P1;durP2;ratioP2;P2;SDS_P1;SDS_P2;PMS_P1;PMS_P2;Temp;Humidity;BMP_temperature;BMP_pressure;BME280_temperature;BME280_humidity;BME280_pressure;Samples;Min_cycle;Max_cycle;Signal;HPM_P1;HPM_P2
2022/09/16 00:00:29;;;;;;;;;5.25;5.25;;;;;17.91;57.02;101159.22;5011899;28;49913;-73
2022/09/16 00:02:55;;;;;;;;;4.75;4.75;;;;;17.90;57.20;101169.84;5012070;28;50531;-74
2022/09/16 00:05:21;;;;;;;;;5.75;4.75;;;;;17.84;57.38;101168.06;5012101;28;49825;-73
2022/09/16 00:07:46;;;;;;;;;4.00;4.00;;;;;17.67;57.62;101144.22;5012219;28;50339;-74
2022/09/16 00:10:12;;;;;;;;;4.75;4.25;;;;;17.77;57.41;101176.97;5011724;28;50539;-74
2022/09/16 00:12:38;;;;;;;;;4.00;4.00;;;;;17.74;57.64;101176.94;5011982;28;49710;-74
2022/09/16 00:15:04;;;;;;;;;2.25;2.25;;;;;17.69;57.64;101182.28;5012140;28;49944;-74
2022/09/16 00:17:30;;;;;;;;;4.25;3.75;;;;;17.66;57.74;101186.66;5012040;28;49879;-74
2022/09/16 00:19:56;;;;;;;;;6.00;5.75;;;;;17.57;57.86;101184.94;5011377;28;51448;-73
2022/09/16 00:22:22;;;;;;;;;4.00;4.00;;;;;17.59;58.03;101191.13;5011709;28;49912;-73
2022/09/16 00:24:47;;;;;;;;;3.00;3.00;;;;;17.12;58.32;101111.53;5011356;28;49750;-74
2022/09/16 00:27:13;;;;;;;;;6.25;6.25;;;;;17.31;58.23;101173.44;5011827;28;49985;-74
2022/09/16 00:29:38;;;;;;;;;4.00;4.00;;;;;17.48;58.51;101187.59;5011689;28;50546;-73
2022/09/16 00:32:03;;;;;;;;;5.00;5.00;;;;;17.44;58.80;101184.03;5011223;28;62693;-73
2022/09/16 00:34:29;;;;;;;;;6.00;6.00;;;;;17.38;59.11;101188.50;5011857;28;49923;-73
2022/09/16 00:36:55;;;;;;;;;7.50;6.25;;;;;17.26;59.07;101172.53;5011833;28;49791;-73
2022/09/16 00:39:20;;;;;;;;;4.50;3.75;;;;;17.26;59.30;101170.78;5010873;28;49875;-73
2022/09/16 00:41:45;;;;;;;;;7.00;4.00;;;;;16.98;59.62;101126.56;5011429;28;49735;-73
2022/09/16 00:44:48;;;;;;;;;4.00;4.00;;;;;17.28;60.06;101184.94;5011613;28;49208;-73
2022/09/16 00:47:19;;;;;;;;;5.75;4.75;;;;;17.27;60.09;101182.28;5011706;28;49771;-73
2022/09/16 00:49:44;;;;;;;;;6.00;6.00;;;;;16.92;60.08;101138.06;4993332;28;51435;-73
2022/09/16 00:52:11;;;;;;;;;4.00;4.00;;;;;17.08;60.46;101166.38;5011513;28;49801;-73
2022/09/16 00:54:39;;;;;;;;;4.50;3.75;;;;;17.25;60.50;101190.25;5010868;28;49917;-73
2022/09/16 00:57:09;;;;;;;;;9.75;7.00;;;;;16.93;60.43;101126.56;5011272;28;49593;-73
2022/09/16 00:59:37;;;;;;;;;8.25;5.25;;;;;17.06;60.68;101144.25;5011090;28;50329;-73
2022/09/16 01:02:08;;;;;;;;;6.75;6.75;;;;;17.23;60.77;101165.47;5011157;28;49981;-73
2022/09/16 01:04:57;;;;;;;;;6.50;5.00;;;;;17.26;60.68;101177.84;5011257;28;49799;-73
2022/09/16 01:07:32;;;;;;;;;8.75;6.75;;;;;17.03;60.94;101133.66;5011369;28;49774;-73
2022/09/16 01:09:57;;;;;;;;;7.25;7.25;;;;;17.33;60.80;101171.66;4992991;28;53721;-73
2022/09/16 01:12:25;;;;;;;;;6.00;6.00;;;;;17.31;60.82;101170.78;5011038;28;50149;-73
2022/09/16 01:14:53;;;;;;;;;6.50;6.50;;;;;17.33;60.95;101174.31;5010958;28;49697;-73
2022/09/16 01:17:33;;;;;;;;;5.75;5.00;;;;;17.31;61.23;101184.94;5010955;28;49570;-73
2022/09/16 01:20:27;;;;;;;;;6.50;6.25;;;;;17.30;61.04;101176.97;5010779;28;50468;-72
2022/09/16 01:23:10;;;;;;;;;7.50;6.25;;;;;17.28;61.38;101189.38;5011016;28;49906;-73
2022/09/16 01:26:19;;;;;;;;;9.50;7.50;;;;;17.26;61.50;101180.50;5010591;28;50105;-73
2022/09/16 01:29:03;;;;;;;;;11.75;9.25;;;;;17.23;61.57;101176.09;5008686;28;49724;-74
2022/09/16 01:31:45;;;;;;;;;5.75;5.00;;;;;17.08;61.74;101174.34;5010773;28;50671;-73
2022/09/16 01:34:21;;;;;;;;;6.00;4.00;;;;;17.02;61.95;101161.06;5010732;28;49663;-73
2022/09/16 01:37:11;;;;;;;;;6.25;5.75;;;;;17.16;62.24;101185.81;5010663;28;49857;-73
2022/09/16 01:39:42;;;;;;;;;5.00;4.75;;;;;17.14;62.33;101187.59;5010502;28;49981;-73
2022/09/16 01:42:46;;;;;;;;;7.75;7.25;;;;;17.11;62.22;101187.59;5010540;28;50323;-73
2022/09/16 01:45:32;;;;;;;;;8.50;7.00;;;;;17.03;62.66;101180.50;5010827;28;49877;-73
2022/09/16 01:48:10;;;;;;;;;8.25;7.50;;;;;17.04;62.97;101187.56;5010318;28;49734;-73
2022/09/16 01:50:39;;;;;;;;;6.50;6.50;;;;;16.99;63.13;101184.94;5010733;28;49619;-73
2022/09/16 01:53:14;;;;;;;;;5.75;5.75;;;;;16.96;63.36;101184.91;5010384;28;50640;-73
2022/09/16 01:55:59;;;;;;;;;6.00;5.00;;;;;16.77;63.63;101152.16;5010245;28;49758;-73
2022/09/16 01:58:27;;;;;;;;;6.00;5.75;;;;;16.90;64.00;101190.22;5010518;28;49945;-73
2022/09/16 02:01:01;;;;;;;;;12.00;9.50;;;;;16.80;63.94;101169.88;5010711;28;49668;-73
2022/09/16 02:03:32;;;;;;;;;7.00;7.00;;;;;16.69;64.10;101153.03;5010320;28;50562;-73
2022/09/16 02:06:04;;;;;;;;;8.75;8.75;;;;;16.79;64.21;101176.03;5012044;28;49769;-72
2022/09/16 02:08:39;;;;;;;;;8.75;7.00;;;;;16.75;64.11;101193.72;4995846;28;49749;-74
2022/09/16 02:11:08;;;;;;;;;8.50;8.50;;;;;16.73;64.44;101184.00;5013671;28;50010;-72
2022/09/16 02:13:44;;;;;;;;;10.25;8.25;;;;;16.70;64.74;101176.03;5013698;28;49730;-72
2022/09/16 02:16:17;;;;;;;;;8.75;8.75;;;;;16.69;64.59;101176.91;5013801;28;49825;-73
2022/09/16 02:18:49;;;;;;;;;8.25;7.25;;;;;16.66;64.61;101175.09;5013803;28;49945;-72
2022/09/16 02:21:15;;;;;;;;;8.00;7.25;;;;;16.64;64.85;101181.28;5013910;28;49774;-72
2022/09/16 02:23:45;;;;;;;;;10.00;8.25;;;;;16.46;65.06;101153.84;5013601;28;49659;-73
2022/09/16 02:26:18;;;;;;;;;8.00;8.00;;;;;16.48;65.31;101160.03;5013264;28;49696;-73
2022/09/16 02:28:47;;;;;;;;;9.50;8.25;;;;;16.28;65.22;101127.28;5013485;28;49935;-72
2022/09/16 02:31:14;;;;;;;;;12.00;11.00;;;;;16.09;65.51;101104.25;5013719;28;49690;-73
2022/09/16 02:33:46;;;;;;;;;10.00;7.50;;;;;16.05;65.64;101081.31;5013357;28;49817;-73
2022/09/16 02:36:18;;;;;;;;;8.25;8.25;;;;;16.42;65.88;101152.06;5013549;28;49860;-73
2022/09/16 02:38:48;;;;;;;;;7.75;7.75;;;;;16.46;65.86;101168.84;5013560;28;49881;-72
2022/09/16 02:41:14;;;;;;;;;7.75;6.75;;;;;16.44;65.86;101160.91;5013272;28;49754;-73
2022/09/16 02:43:41;;;;;;;;;11.00;9.25;;;;;16.42;66.51;101161.78;5013102;28;49697;-73
2022/09/16 02:46:09;;;;;;;;;10.50;7.50;;;;;16.39;66.57;101162.63;5013236;28;49874;-73
2022/09/16 02:48:46;;;;;;;;;8.50;7.00;;;;;16.13;66.42;101114.88;5013303;28;49841;-73
2022/09/16 02:51:49;;;;;;;;;7.75;7.00;;;;;16.34;66.39;101163.53;5006933;28;50054;-73
2022/09/16 02:54:29;;;;;;;;;9.00;9.00;;;;;16.06;66.52;101117.50;5012886;28;51060;-72
2022/09/16 02:56:56;;;;;;;;;8.75;8.75;;;;;16.24;66.81;101150.25;5013259;28;49726;-73
2022/09/16 02:59:23;;;;;;;;;11.25;11.25;;;;;16.03;66.56;101124.56;5013203;28;50628;-73
2022/09/16 03:01:48;;;;;;;;;7.75;7.75;;;;;16.22;67.02;101165.25;5013259;28;49773;-73
2022/09/16 03:04:16;;;;;;;;;8.25;8.25;;;;;16.21;67.34;101162.56;4994851;28;51410;-73
2022/09/16 03:06:41;;;;;;;;;8.75;8.75;;;;;16.18;67.08;101163.44;5012899;28;49837;-73
2022/09/16 03:09:11;;;;;;;;;9.50;9.50;;;;;16.09;67.68;101151.94;5012744;28;49734;-73
2022/09/16 03:11:58;;;;;;;;;11.75;10.75;;;;;16.12;67.62;101158.16;5013259;28;49901;-73
2022/09/16 03:14:41;;;;;;;;;7.50;7.50;;;;;16.12;67.83;101157.25;5012792;28;50540;-73
2022/09/16 03:17:24;;;;;;;;;13.25;9.50;;;;;16.09;67.99;101152.81;5011669;28;49671;-73
2022/09/16 03:20:02;;;;;;;;;9.75;9.75;;;;;16.07;68.10;101154.56;5012923;28;50025;-73
2022/09/16 03:23:03;;;;;;;;;10.75;8.50;;;;;16.06;68.23;101154.56;5012865;28;49798;-73
2022/09/16 03:25:57;;;;;;;;;9.75;8.50;;;;;16.02;68.05;101146.63;5010506;28;50670;-73
2022/09/16 03:28:36;;;;;;;;;6.00;6.00;;;;;16.00;68.12;101151.00;4994791;28;49859;-73
2022/09/16 03:31:09;;;;;;;;;8.50;6.25;;;;;15.98;68.56;101150.13;5012918;28;49682;-72
2022/09/16 03:33:42;;;;;;;;;10.00;9.00;;;;;15.97;68.71;101153.66;5012856;28;49905;-73
2022/09/16 03:36:13;;;;;;;;;14.25;10.75;;;;;15.93;68.45;101162.47;5012548;28;49729;-73
2022/09/16 03:38:40;;;;;;;;;12.25;10.75;;;;;15.74;68.87;101134.13;4994597;28;49941;-74
2022/09/16 03:41:07;;;;;;;;;8.00;8.00;;;;;15.90;69.42;101164.19;5012107;28;50009;-74
2022/09/16 03:43:33;;;;;;;;;6.00;6.00;;;;;15.55;68.98;101104.00;4994798;28;49859;-73
2022/09/16 03:45:58;;;;;;;;;7.25;6.00;;;;;15.09;68.89;101041.97;5012238;28;50512;-74
2022/09/16 03:48:23;;;;;;;;;8.25;7.00;;;;;15.67;69.14;101149.06;5011898;28;55190;-73
2022/09/16 03:50:49;;;;;;;;;7.75;7.75;;;;;15.80;69.43;101176.50;5012501;28;50054;-73
2022/09/16 03:53:14;;;;;;;;;12.00;8.75;;;;;15.80;69.22;101184.44;5012253;28;50589;-74
2022/09/16 03:55:40;;;;;;;;;7.25;7.25;;;;;15.29;69.36;101093.22;5011981;28;49676;-73
2022/09/16 03:58:05;;;;;;;;;7.75;7.75;;;;;15.69;69.73;101167.59;5012060;28;49591;-73
2022/09/16 04:00:31;;;;;;;;;11.25;9.25;;;;;15.73;69.67;101170.31;5012159;28;49846;-73
2022/09/16 04:02:58;;;;;;;;;9.25;7.50;;;;;15.68;69.77;101168.50;5012186;28;49718;-74
2022/09/16 04:05:23;;;;;;;;;9.50;7.25;;;;;15.70;69.83;101177.31;5011984;28;50792;-74
2022/09/16 04:07:48;;;;;;;;;12.00;10.00;;;;;15.67;70.04;101178.19;5012109;28;49639;-74
2022/09/16 04:10:14;;;;;;;;;10.00;7.00;;;;;15.66;70.17;101180.84;5011961;28;50173;-74
2022/09/16 04:12:39;;;;;;;;;8.00;8.00;;;;;15.64;69.81;101186.13;5012179;28;49817;-74
2022/09/16 04:15:05;;;;;;;;;8.75;8.25;;;;;15.62;70.17;101182.56;5011750;28;50554;-75
2022/09/16 04:17:31;;;;;;;;;11.25;9.00;;;;;15.43;70.18;101155.03;5011677;28;49667;-73
2022/09/16 04:19:57;;;;;;;;;14.00;9.50;;;;;15.57;70.00;101183.38;5011134;28;49835;-73
2022/09/16 04:22:22;;;;;;;;;8.50;8.50;;;;;15.58;70.05;101185.16;5012126;28;49627;-73
2022/09/16 04:24:48;;;;;;;;;7.00;7.00;;;;;15.55;70.04;101182.50;5011574;28;49683;-73
2022/09/16 04:27:13;;;;;;;;;12.00;10.00;;;;;15.09;69.77;101110.72;5011834;28;49841;-74
2022/09/16 04:29:39;;;;;;;;;6.25;6.25;;;;;15.48;69.88;101188.59;5011437;28;49732;-80
2022/09/16 04:32:04;;;;;;;;;14.00;10.25;;;;;14.75;70.30;101067.25;5011619;28;50920;-77
2022/09/16 04:34:31;;;;;;;;;14.00;10.25;;;;;15.58;70.32;101212.50;5011333;28;51051;-74
2022/09/16 04:36:57;;;;;;;;;12.25;11.00;;;;;15.49;70.26;101188.59;5011550;28;49698;-74
2022/09/16 04:39:22;;;;;;;;;7.50;6.50;;;;;15.28;69.93;101154.06;5011122;28;49916;-75
2022/09/16 04:41:48;;;;;;;;;12.00;8.50;;;;;15.61;69.97;101194.00;5011361;28;49823;-75
2022/09/16 04:44:14;;;;;;;;;12.00;10.75;;;;;15.62;69.82;101193.13;5010979;28;50672;-73
2022/09/16 04:46:39;;;;;;;;;8.75;7.00;;;;;15.62;69.78;101182.56;5011095;28;49828;-73
2022/09/16 04:49:05;;;;;;;;;11.75;9.25;;;;;15.58;69.91;101183.38;5010965;28;49788;-75
2022/09/16 04:51:31;;;;;;;;;11.75;10.50;;;;;15.66;69.51;101187.00;4993258;28;49722;-74
2022/09/16 04:53:58;;;;;;;;;10.00;10.00;;;;;15.62;69.74;101179.91;5010789;28;51055;-73
2022/09/16 04:56:26;;;;;;;;;7.75;7.50;;;;;15.67;69.66;101175.53;5010869;28;49798;-75
2022/09/16 04:58:54;;;;;;;;;14.25;11.50;;;;;15.75;69.76;101186.19;5010931;28;49772;-74
2022/09/16 05:01:23;;;;;;;;;10.00;10.00;;;;;15.79;69.52;101184.44;5011309;28;49868;-75
2022/09/16 05:03:51;;;;;;;;;10.00;7.25;;;;;15.79;68.90;101177.38;5011002;28;49784;-74
2022/09/16 05:06:24;;;;;;;;;10.00;8.00;;;;;15.20;68.85;101094.94;5010730;28;50554;-74
2022/09/16 05:08:50;;;;;;;;;7.25;7.25;;;;;15.78;69.30;101188.84;5010650;28;49794;-75
2022/09/16 05:11:19;;;;;;;;;8.75;8.25;;;;;15.78;69.58;101191.50;5008895;28;50012;-73
2022/09/16 05:13:44;;;;;;;;;7.00;7.00;;;;;15.73;69.47;101174.72;5010158;28;50092;-74
2022/09/16 05:16:12;;;;;;;;;7.00;7.00;;;;;15.78;69.53;101180.91;5011994;28;49946;-73
2022/09/16 05:18:39;;;;;;;;;10.00;9.25;;;;;15.79;69.57;101182.66;4985207;28;49889;-74
2022/09/16 05:21:07;;;;;;;;;9.75;9.75;;;;;15.79;69.00;101187.97;5010403;28;49823;-74
2022/09/16 05:23:33;;;;;;;;;7.50;7.50;;;;;15.84;69.23;101191.53;5010110;28;49888;-74
2022/09/16 05:26:11;;;;;;;;;8.25;7.75;;;;;15.93;69.64;101193.34;5008074;28;50144;-74
2022/09/16 05:28:37;;;;;;;;;8.75;7.25;;;;;15.50;69.28;101118.06;5010111;28;49942;-76
2022/09/16 05:31:17;;;;;;;;;9.75;9.75;;;;;15.62;69.12;101141.97;5009688;28;49799;-75
2022/09/16 05:33:46;;;;;;;;;13.50;12.00;;;;;15.99;69.18;101206.63;5009782;28;50791;-78
2022/09/16 05:36:14;;;;;;;;;11.00;9.50;;;;;15.98;68.93;101202.19;5010441;28;49791;-79
2022/09/16 05:38:39;;;;;;;;;12.25;10.00;;;;;14.91;68.80;101016.28;5011074;28;49627;-79
2022/09/16 05:41:05;;;;;;;;;14.00;14.00;;;;;15.72;68.81;101162.31;5008401;28;49732;-77
2022/09/16 05:43:34;;;;;;;;;16.50;13.25;;;;;16.00;68.92;101216.31;5019442;28;49719;-89
2022/09/16 05:46:00;;;;;;;;;16.00;14.00;;;;;14.95;68.96;101049.78;5016693;28;49933;-74
2022/09/16 05:48:26;;;;;;;;;14.50;12.00;;;;;15.50;68.88;101129.53;5014463;28;49796;-79
2022/09/16 05:50:56;;;;;;;;;11.50;11.25;;;;;15.96;68.77;101207.50;5014146;28;49695;-78
2022/09/16 05:53:23;;;;;;;;;10.50;9.50;;;;;15.91;69.26;101192.44;5009206;28;51034;-75
2022/09/16 05:56:09;;;;;;;;;10.50;6.50;;;;;16.09;69.01;101207.53;5009955;28;49941;-76
2022/09/16 05:58:35;;;;;;;;;10.50;9.50;;;;;14.98;69.03;101006.66;5004224;28;49943;-77
2022/09/16 06:01:06;;;;;;;;;15.50;14.25;;;;;16.16;68.46;101210.25;5009734;28;50126;-73
2022/09/16 06:03:33;;;;;;;;;12.50;11.75;;;;;16.17;68.37;101212.00;5008253;28;50464;-72
2022/09/16 06:06:10;;;;;;;;;10.25;9.25;;;;;16.18;68.38;101213.78;5003247;28;49734;-73
2022/09/16 06:08:36;;;;;;;;;10.00;9.00;;;;;16.16;68.35;101215.53;5006544;28;49700;-73
2022/09/16 06:11:04;;;;;;;;;12.00;10.75;;;;;15.99;68.41;101177.47;5012191;28;49705;-81
2022/09/16 06:13:30;;;;;;;;;13.25;9.50;;;;;16.23;68.12;101205.88;5011649;28;51000;-73
2022/09/16 06:15:56;;;;;;;;;12.75;12.75;;;;;15.84;67.90;101150.94;5012816;28;49571;-74
2022/09/16 06:18:23;;;;;;;;;12.50;9.50;;;;;16.37;67.62;101227.13;5010496;28;49709;-73
2022/09/16 06:20:49;;;;;;;;;17.25;12.00;;;;;16.30;67.40;101213.81;5010776;28;49676;-71
2022/09/16 06:23:15;;;;;;;;;11.00;11.00;;;;;16.25;67.94;101214.69;5010869;28;49739;-73
2022/09/16 06:25:40;;;;;;;;;14.75;12.00;;;;;16.37;67.94;101230.66;5012596;28;50121;-69
2022/09/16 06:28:06;;;;;;;;;13.50;12.25;;;;;16.21;67.82;101194.34;5010391;28;49816;-72
2022/09/16 06:30:31;;;;;;;;;11.25;9.25;;;;;16.42;67.81;101225.38;5009624;28;58574;-75
2022/09/16 06:32:57;;;;;;;;;12.50;11.75;;;;;16.24;67.79;101194.41;5009454;28;55847;-68
2022/09/16 06:35:22;;;;;;;;;14.25;11.00;;;;;16.50;67.90;101231.56;5008762;28;49765;-74
2022/09/16 06:37:48;;;;;;;;;11.50;11.50;;;;;16.34;67.16;101190.91;5010494;28;49910;-73
2022/09/16 06:40:14;;;;;;;;;14.00;11.00;;;;;16.62;67.56;101233.41;5009733;28;49580;-69
2022/09/16 06:42:39;;;;;;;;;11.75;10.25;;;;;16.48;67.15;101204.19;5009485;28;50024;-70
2022/09/16 06:45:05;;;;;;;;;14.00;12.50;;;;;16.74;67.10;101237.00;5009355;28;59877;-68
2022/09/16 06:47:34;;;;;;;;;13.00;10.25;;;;;16.83;67.34;101234.38;5009590;28;49555;-73
2022/09/16 06:50:00;;;;;;;;;11.25;9.00;;;;;16.93;66.54;101239.72;5009426;28;50124;-73
2022/09/16 06:52:26;;;;;;;;;14.25;14.25;;;;;17.03;66.45;101241.50;4993959;28;50722;-69
2022/09/16 06:54:52;;;;;;;;;10.50;9.50;;;;;17.07;66.16;101241.50;5013054;28;50313;-73
2022/09/16 06:57:21;;;;;;;;;13.50;13.50;;;;;17.04;65.75;101249.47;5013149;28;49982;-75
2022/09/16 06:59:47;;;;;;;;;9.75;9.50;;;;;17.05;65.96;101248.56;5013116;28;49860;-69
2022/09/16 07:02:12;;;;;;;;;15.25;15.00;;;;;16.77;65.94;101199.00;5012795;28;50748;-69
2022/09/16 07:04:37;;;;;;;;;16.00;14.25;;;;;17.09;65.96;101254.78;5012582;28;56907;-72
2022/09/16 07:07:03;;;;;;;;;13.75;13.75;;;;;17.03;66.08;101239.75;5013030;28;49875;-75
2022/09/16 07:09:29;;;;;;;;;16.25;13.50;;;;;17.16;65.48;101254.78;5030153;28;49727;-73
2022/09/16 07:11:58;;;;;;;;;12.00;11.50;;;;;17.23;65.74;101268.97;5028545;28;50165;-72
2022/09/16 07:14:24;;;;;;;;;12.25;12.25;;;;;17.10;65.31;101225.63;5027678;28;49645;-73
2022/09/16 07:16:49;;;;;;;;;11.75;11.75;;;;;17.41;65.26;101268.97;5000181;28;49920;-82
2022/09/16 07:19:14;;;;;;;;;15.50;13.50;;;;;17.49;64.93;101271.66;5013907;28;49714;-75
2022/09/16 07:21:40;;;;;;;;;12.75;10.25;;;;;17.55;64.84;101273.41;5012500;28;49796;-71
2022/09/16 07:24:08;;;;;;;;;16.75;15.50;;;;;17.61;64.44;101269.00;5030336;28;49636;-75
2022/09/16 07:26:36;;;;;;;;;10.25;9.00;;;;;17.49;64.11;101238.91;5015720;28;49799;-76
2022/09/16 07:29:03;;;;;;;;;12.75;11.00;;;;;17.80;64.02;101279.63;5011884;28;49822;-70
2022/09/16 07:31:32;;;;;;;;;15.00;13.50;;;;;17.74;63.73;101260.16;5014844;28;51702;-70
2022/09/16 07:34:00;;;;;;;;;11.50;11.50;;;;;17.82;63.74;101268.13;5011832;28;49841;-68
2022/09/16 07:36:28;;;;;;;;;11.50;11.50;;;;;17.83;63.56;101251.28;4994591;28;49850;-77
2022/09/16 07:38:57;;;;;;;;;14.75;11.50;;;;;18.00;63.44;101275.19;5012256;28;49787;-77
2022/09/16 07:41:28;;;;;;;;;14.50;14.00;;;;;17.86;62.95;101238.03;5014380;28;50577;-69
2022/09/16 07:43:57;;;;;;;;;11.50;10.25;;;;;17.93;63.01;101247.75;5017438;28;49745;-70
2022/09/16 07:46:24;;;;;;;;;9.25;8.75;;;;;18.03;63.28;101276.06;5012008;28;49738;-73
2022/09/16 07:48:50;;;;;;;;;11.75;10.00;;;;;17.92;63.15;101267.22;5012171;28;49933;-70
2022/09/16 07:51:19;;;;;;;;;13.50;11.25;;;;;17.99;63.05;101284.94;5010735;28;52403;-71
2022/09/16 07:53:45;;;;;;;;;10.75;9.50;;;;;17.79;63.43;101257.50;5015190;28;50293;-74
2022/09/16 07:56:14;;;;;;;;;15.00;13.75;;;;;17.55;62.54;101213.22;5010973;28;49874;-74
2022/09/16 07:58:40;;;;;;;;;12.00;11.00;;;;;17.93;63.00;101289.34;5011676;28;50028;-74
2022/09/16 08:01:06;;;;;;;;;13.50;13.50;;;;;17.83;63.06;101288.47;5011708;28;50606;-77
2022/09/16 08:03:37;;;;;;;;;12.25;10.25;;;;;17.36;63.39;101233.56;5010936;28;49817;-75
2022/09/16 08:06:05;;;;;;;;;11.50;11.50;;;;;17.22;63.85;101205.28;5011756;28;49857;-74
2022/09/16 08:08:31;;;;;;;;;10.00;10.00;;;;;17.88;63.54;101305.31;5011611;28;49709;-73
2022/09/16 08:10:58;;;;;;;;;12.50;9.75;;;;;17.79;63.52;101277.88;5011057;28;50688;-76
2022/09/16 08:13:24;;;;;;;;;15.75;12.75;;;;;17.83;63.83;101290.25;5011399;28;49875;-75
2022/09/16 08:15:50;;;;;;;;;16.00;11.00;;;;;17.64;63.08;101276.06;5011102;28;49696;-75
2022/09/16 08:18:15;;;;;;;;;10.75;10.75;;;;;17.24;63.38;101187.59;5011583;28;49882;-76
2022/09/16 08:20:40;;;;;;;;;9.00;8.00;;;;;18.04;63.34;101311.47;5011302;28;49851;-75
2022/09/16 08:23:06;;;;;;;;;11.25;9.25;;;;;17.56;62.50;101241.53;5010481;28;60738;-76
2022/09/16 08:25:31;;;;;;;;;12.25;10.25;;;;;18.18;62.35;101317.66;5011158;28;50257;-76
2022/09/16 08:27:57;;;;;;;;;10.50;9.00;;;;;18.22;61.57;101327.41;5011374;28;49841;-76
2022/09/16 08:30:22;;;;;;;;;9.75;8.25;;;;;18.35;61.77;101324.75;5010513;28;49638;-75
2022/09/16 08:32:55;;;;;;;;;9.00;8.75;;;;;18.26;61.25;101276.03;4993191;28;49755;-76
2022/09/16 08:35:20;;;;;;;;;9.00;8.00;;;;;18.59;60.65;101319.34;5011248;28;49940;-78
2022/09/16 08:37:45;;;;;;;;;9.75;9.25;;;;;18.11;60.27;101238.84;5011311;28;49941;-76
2022/09/16 08:40:15;;;;;;;;;8.75;8.75;;;;;18.74;60.26;101319.34;5010683;28;50437;-76
2022/09/16 08:43:06;;;;;;;;;12.50;10.00;;;;;18.86;59.94;101313.06;5010903;28;49748;-77
2022/09/16 08:45:34;;;;;;;;;11.50;11.50;;;;;19.05;59.73;101324.50;5002272;28;50133;-75
2022/09/16 08:48:15;;;;;;;;;9.25;8.00;;;;;19.09;59.08;101307.63;5011067;28;49884;-75
2022/09/16 08:50:45;;;;;;;;;10.50;9.75;;;;;18.22;58.63;101146.69;5010718;28;51110;-76
2022/09/16 08:53:34;;;;;;;;;9.75;9.75;;;;;19.44;58.45;101336.72;5010741;28;49810;-76
2022/09/16 08:56:04;;;;;;;;;10.00;10.00;;;;;18.91;57.99;101247.41;5010816;28;49798;-76
2022/09/16 08:58:39;;;;;;;;;10.00;6.75;;;;;19.72;56.31;101342.75;5010815;28;50341;-76
2022/09/16 09:01:26;;;;;;;;;7.50;7.50;;;;;18.68;56.41;101134.97;5010764;28;49788;-75
2022/09/16 09:03:52;;;;;;;;;8.50;7.25;;;;;19.28;55.27;101234.75;5010450;28;49757;-77
2022/09/16 09:06:37;;;;;;;;;8.00;8.00;;;;;19.96;54.17;101342.53;5010606;28;49860;-75
2022/09/16 09:09:20;;;;;;;;;5.25;5.00;;;;;20.02;53.71;101345.16;5009987;28;49944;-77
2022/09/16 09:12:02;;;;;;;;;4.00;4.00;;;;;18.85;52.44;101151.69;5010396;28;49771;-77
2022/09/16 09:14:35;;;;;;;;;3.00;3.00;;;;;20.00;51.97;101325.66;4992615;28;50087;-76
2022/09/16 09:17:19;;;;;;;;;6.00;4.75;;;;;20.22;52.18;101352.09;5010616;28;49739;-77
2022/09/16 09:20:14;;;;;;;;;3.25;3.25;;;;;20.37;51.01;101343.06;5010647;28;49811;-76
2022/09/16 09:23:17;;;;;;;;;4.00;4.00;;;;;20.41;48.43;101345.69;5007160;28;50938;-76
2022/09/16 09:25:55;;;;;;;;;9.00;5.00;;;;;20.41;48.75;101329.69;4948465;28;49911;-76
2022/09/16 09:28:48;;;;;;;;;3.00;3.00;;;;;20.73;47.39;101350.69;5001700;28;49984;-76
2022/09/16 09:31:32;;;;;;;;;4.00;4.00;;;;;20.80;47.10;101352.38;5010447;28;50302;-76
2022/09/16 09:34:33;;;;;;;;;4.25;4.25;;;;;20.91;46.94;101357.59;5010204;28;49825;-76
2022/09/16 09:37:17;;;;;;;;;2.25;2.00;;;;;21.02;46.76;101347.66;4963095;28;49864;-75
2022/09/16 09:39:48;;;;;;;;;1.00;1.00;;;;;21.04;43.90;101356.56;5010002;28;50018;-75
2022/09/16 09:42:51;;;;;;;;;4.25;2.25;;;;;21.10;43.44;101356.44;5010010;28;49747;-76
2022/09/16 09:45:28;;;;;;;;;5.00;3.00;;;;;20.27;43.53;101206.31;5003213;28;49859;-75
2022/09/16 09:48:02;;;;;;;;;2.25;2.00;;;;;20.68;43.37;101272.50;5005067;28;49854;-75
2022/09/16 09:50:51;;;;;;;;;2.00;2.00;;;;;21.03;42.86;101329.84;5009846;28;49788;-75
2022/09/16 09:53:24;;;;;;;;;5.00;3.75;;;;;21.03;41.94;101357.44;5010221;28;49887;-76
2022/09/16 09:55:59;;;;;;;;;3.50;2.50;;;;;20.86;42.22;101340.78;5009839;28;49870;-76
2022/09/16 09:58:38;;;;;;;;;2.50;2.50;;;;;21.02;42.08;101363.66;5009947;28;49905;-76
2022/09/16 10:01:03;;;;;;;;;8.50;8.50;;;;;20.46;41.73;101303.91;5005208;28;50154;-77
2022/09/16 10:03:30;;;;;;;;;3.00;3.00;;;;;20.63;41.81;101314.34;5010060;28;49842;-73
2022/09/16 10:05:55;;;;;;;;;1.25;1.00;;;;;20.81;41.67;101356.81;5009678;28;50375;-76
2022/09/16 10:08:24;;;;;;;;;2.50;2.50;;;;;20.81;41.57;101369.28;5009711;28;49815;-74
2022/09/16 10:10:55;;;;;;;;;2.00;2.00;;;;;20.68;41.78;101349.00;4992034;28;49932;-76
2022/09/16 10:13:22;;;;;;;;;1.50;1.50;;;;;20.73;42.26;101353.34;5010005;28;50059;-74
2022/09/16 10:15:52;;;;;;;;;2.50;2.50;;;;;20.88;42.09;101360.31;5009690;28;50350;-73
2022/09/16 10:18:25;;;;;;;;;4.50;3.00;;;;;20.40;42.18;101265.69;5009819;28;49786;-74
2022/09/16 10:21:15;;;;;;;;;3.75;1.25;;;;;21.11;41.23;101358.22;5009521;28;50021;-77
2022/09/16 10:23:40;;;;;;;;;2.75;2.00;;;;;21.09;41.16;101327.13;4994222;28;50339;-72
2022/09/16 10:26:22;;;;;;;;;1.00;1.00;;;;;21.51;41.23;101341.66;5009668;28;50469;-77
2022/09/16 10:29:12;;;;;;;;;1.00;1.00;;;;;21.77;38.37;101354.63;5013436;28;50556;-74
2022/09/16 10:31:40;;;;;;;;;1.25;1.25;;;;;21.80;37.13;101343.00;5013592;28;50072;-75
2022/09/16 10:34:19;;;;;;;;;1.00;1.00;;;;;21.86;35.95;101348.25;5018440;28;50021;-77
2022/09/16 10:36:45;;;;;;;;;1.00;1.00;;;;;21.89;36.22;101372.25;5017600;28;50070;-77
2022/09/16 10:39:23;;;;;;;;;2.00;2.00;;;;;21.39;36.95;101286.66;5012422;28;49768;-72
2022/09/16 10:41:52;;;;;;;;;2.00;2.00;;;;;21.84;37.19;101342.06;5012123;28;50006;-73
2022/09/16 10:44:25;;;;;;;;;2.50;2.50;;;;;21.86;37.60;101361.63;5013172;28;49661;-81
2022/09/16 10:47:05;;;;;;;;;5.00;3.50;;;;;21.82;38.51;101360.78;5013720;28;49969;-70
2022/09/16 10:49:52;;;;;;;;;2.25;2.25;;;;;21.79;38.14;101351.94;5006936;28;49970;-71
2022/09/16 10:52:21;;;;;;;;;2.75;2.50;;;;;21.97;38.16;101356.97;5012804;28;50093;-74
2022/09/16 10:54:47;;;;;;;;;4.00;3.00;;;;;22.08;37.91;101355.03;5012615;28;49750;-75
2022/09/16 10:57:23;;;;;;;;;2.50;1.25;;;;;22.16;37.87;101347.75;5012260;28;49733;-73
2022/09/16 11:00:19;;;;;;;;;2.00;2.00;;;;;22.21;37.72;101361.94;5012503;28;49862;-73
2022/09/16 11:03:16;;;;;;;;;2.00;2.00;;;;;22.23;38.24;101353.88;4993152;28;49901;-74
2022/09/16 11:06:02;;;;;;;;;3.00;3.00;;;;;22.18;37.99;101355.75;5012373;28;49631;-72
2022/09/16 11:08:45;;;;;;;;;3.50;2.75;;;;;22.14;38.02;101362.97;5007414;28;49808;-75
2022/09/16 11:11:19;;;;;;;;;2.75;2.75;;;;;22.14;38.13;101362.06;5012402;28;49980;-77
2022/09/16 11:13:45;;;;;;;;;0.50;0.50;;;;;22.10;37.88;101353.25;5011895;28;49915;-72
2022/09/16 11:16:16;;;;;;;;;1.00;1.00;;;;;22.07;38.25;101349.72;4993528;28;49806;-86
2022/09/16 11:18:56;;;;;;;;;1.25;1.25;;;;;22.04;38.31;101358.66;5013422;28;51240;-78
2022/09/16 11:21:55;;;;;;;;;3.00;1.75;;;;;21.66;38.09;101321.84;5007408;28;49723;-80
2022/09/16 11:24:39;;;;;;;;;5.00;2.25;;;;;21.92;38.08;101366.88;5010125;28;49855;-80
2022/09/16 11:27:16;;;;;;;;;2.00;2.00;;;;;21.95;37.53;101357.00;5012847;28;49781;-74
2022/09/16 11:29:59;;;;;;;;;2.75;1.50;;;;;22.11;37.41;101352.31;5006930;28;49817;-75
2022/09/16 11:32:34;;;;;;;;;2.25;2.00;;;;;22.25;36.79;101366.31;5012415;28;49588;-80
2022/09/16 11:35:33;;;;;;;;;1.00;1.00;;;;;22.30;36.79;101362.69;5012559;28;49900;-75
2022/09/16 11:38:37;;;;;;;;;2.25;2.25;;;;;21.57;35.81;101218.69;5010812;28;49840;-75
2022/09/16 11:41:34;;;;;;;;;1.00;1.00;;;;;22.59;35.92;101359.47;5011497;28;51033;-73